aviador You're here:

KAUM Decoded Metar

AUSTIN MUNI in MN, USA
Report Time2018-06-24 00:55:00
UTC Time2018-06-24 01:02:37
Flight Rules vfr VFR
Wind220° at 03 kt
W.Decomp.*RWY 17: 2.0 kt HW 2.2 kt RCW
W.Rank220° ranks 18
Current wind is below 220° avg. (7.4)
Visibility9999 m
Phenomena:N/A
Clouds:N/A
Expected CloudBase > 3,200 ft AGL from Temp-Dew spread
CeilingNone
Temp23°C (ISA +10)
Dew Point15°C (61% RH)
QNH1009 hPa
Density Alt2,808 ft
Elevation1,230 ft
Report Wrong Elevation
Raw Report
METAR KAUM 240055Z AUTO 22003KT 10SM CLR 23/15 A2979 RMK AO2=

Extra information for KAUM:More info

Metar Taf Metar & Taf Last 4 Metars F.Rules Stats Wind Profile Meteogram Temp Stats Airport Information Weather charts Add Link Nearby VenuesMetar ALERT Operation Metar Decoded Social comments

AIRNAV info for KAUM